createdAt,value
2023-03-26T00:01:47.515Z,6.80
2023-03-26T00:04:22.306Z,6.70
2023-03-26T00:06:50.504Z,6.80
2023-03-26T00:09:18.560Z,6.80
2023-03-26T00:14:30.284Z,6.90
2023-03-26T00:16:58.176Z,6.90
2023-03-26T00:19:26.096Z,6.90
2023-03-26T00:21:54.429Z,7.00
2023-03-26T00:24:29.718Z,7.00
2023-03-26T00:26:59.802Z,6.90
2023-03-26T00:29:28.222Z,6.90
2023-03-26T00:31:55.907Z,7.10
2023-03-26T00:34:25.013Z,7.10
2023-03-26T00:36:55.380Z,7.00
2023-03-26T00:39:25.716Z,7.00
2023-03-26T00:41:54.536Z,7.00
2023-03-26T00:44:22.905Z,7.00
2023-03-26T00:46:50.639Z,7.00
2023-03-26T00:49:18.816Z,6.90
2023-03-26T00:51:46.572Z,7.00
2023-03-26T00:54:14.506Z,6.90
2023-03-26T00:56:42.560Z,6.90
2023-03-26T00:59:11.134Z,6.70
2023-03-26T01:01:40.309Z,6.80
2023-03-26T01:04:31.950Z,6.90
2023-03-26T01:07:04.027Z,6.80
2023-03-26T01:09:35.961Z,6.80
2023-03-26T01:12:06.969Z,6.90
2023-03-26T01:14:35.760Z,7.00
2023-03-26T01:17:13.409Z,6.80
2023-03-26T01:19:53.721Z,6.80
2023-03-26T01:22:24.719Z,6.70
2023-03-26T01:24:54.064Z,6.70
2023-03-26T01:27:41.254Z,6.70
2023-03-26T01:30:27.679Z,6.60
2023-03-26T01:33:14.543Z,6.60
2023-03-26T01:36:00.441Z,6.70
2023-03-26T01:38:31.227Z,6.60
2023-03-26T01:41:21.670Z,6.70
2023-03-26T01:44:05.447Z,6.70
2023-03-26T01:46:36.354Z,6.70
2023-03-26T01:49:06.316Z,6.70
2023-03-26T01:51:36.474Z,6.80
2023-03-26T01:54:07.459Z,6.70
2023-03-26T01:56:39.231Z,6.70
2023-03-26T01:59:32.472Z,6.60
2023-03-26T02:02:14.364Z,6.60
2023-03-26T02:05:01.903Z,6.50
2023-03-26T02:07:56.080Z,6.40
2023-03-26T02:10:26.086Z,6.30
2023-03-26T02:12:54.261Z,6.20
2023-03-26T02:15:22.629Z,6.20
2023-03-26T02:17:52.452Z,6.10
2023-03-26T02:20:21.239Z,6.10
2023-03-26T02:22:49.065Z,6.00
2023-03-26T02:25:21.803Z,5.90
2023-03-26T02:27:52.212Z,5.90
2023-03-26T02:30:26.059Z,5.90
2023-03-26T02:32:59.661Z,5.80
2023-03-26T02:35:37.929Z,5.80
2023-03-26T02:38:06.739Z,5.70
2023-03-26T02:40:35.248Z,5.60
2023-03-26T02:43:03.224Z,5.60
2023-03-26T02:45:32.595Z,5.60
2023-03-26T02:48:09.325Z,5.60
2023-03-26T02:50:40.177Z,5.60
2023-03-26T02:53:34.649Z,5.60
2023-03-26T02:56:37.849Z,5.60
2023-03-26T02:59:23.226Z,5.50
2023-03-26T03:02:07.902Z,5.20
2023-03-26T03:04:45.300Z,4.90
2023-03-26T03:07:14.977Z,4.80
2023-03-26T03:09:42.953Z,4.70
2023-03-26T03:12:29.250Z,4.60
2023-03-26T03:14:56.972Z,4.60
2023-03-26T03:17:24.676Z,4.40
2023-03-26T03:19:52.837Z,4.30
2023-03-26T03:22:21.276Z,4.40
2023-03-26T03:24:52.269Z,4.50
2023-03-26T03:27:21.916Z,4.60
2023-03-26T03:30:00.620Z,4.70
2023-03-26T03:32:46.711Z,4.40
2023-03-26T03:35:19.728Z,4.10
2023-03-26T03:37:51.122Z,4.20
2023-03-26T03:40:19.807Z,4.10
2023-03-26T03:42:47.907Z,4.00
2023-03-26T03:45:23.107Z,3.80
2023-03-26T03:48:18.945Z,3.70
2023-03-26T03:50:49.769Z,3.90
2023-03-26T03:53:30.573Z,4.10
2023-03-26T03:56:02.036Z,3.90
2023-03-26T03:58:50.329Z,3.80
2023-03-26T04:01:25.367Z,3.80
2023-03-26T04:04:01.425Z,3.50
2023-03-26T04:06:43.900Z,3.40
2023-03-26T04:09:13.814Z,3.30
2023-03-26T04:11:41.844Z,3.30
2023-03-26T04:14:28.286Z,3.40
2023-03-26T04:17:06.150Z,3.50
2023-03-26T04:19:37.398Z,3.60
2023-03-26T04:22:07.985Z,3.60
2023-03-26T04:24:41.617Z,3.60
2023-03-26T04:27:32.259Z,3.50
2023-03-26T04:30:16.675Z,3.30
2023-03-26T04:32:45.081Z,3.50
2023-03-26T04:35:17.030Z,3.70
2023-03-26T04:37:49.498Z,3.70
2023-03-26T04:40:23.259Z,3.70
2023-03-26T04:43:06.552Z,3.70
2023-03-26T04:45:54.438Z,3.70
2023-03-26T04:48:25.697Z,3.60
2023-03-26T04:50:53.889Z,3.80
2023-03-26T04:53:24.513Z,3.80
2023-03-26T04:56:40.794Z,3.80
2023-03-26T04:59:30.237Z,3.50
2023-03-26T05:02:03.358Z,3.50
2023-03-26T05:04:37.073Z,3.50
2023-03-26T05:07:05.126Z,3.50
2023-03-26T05:09:39.645Z,3.50
2023-03-26T05:12:16.700Z,3.60
2023-03-26T05:15:11.828Z,3.60
2023-03-26T05:17:52.708Z,3.60
2023-03-26T05:20:30.803Z,3.70
2023-03-26T05:22:58.872Z,3.90
2023-03-26T05:25:32.263Z,4.00
2023-03-26T05:28:02.302Z,4.00
2023-03-26T05:30:37.933Z,4.10
2023-03-26T05:33:06.655Z,4.20
2023-03-26T05:35:59.465Z,4.30
2023-03-26T05:38:29.479Z,4.40
2023-03-26T05:41:02.260Z,4.40
2023-03-26T05:43:31.070Z,4.40
2023-03-26T05:46:25.345Z,4.30
2023-03-26T05:48:54.531Z,4.30
2023-03-26T05:51:23.848Z,4.30
2023-03-26T05:54:10.228Z,4.40
2023-03-26T05:56:58.200Z,4.40
2023-03-26T05:59:46.816Z,4.50
2023-03-26T06:02:51.393Z,4.60
2023-03-26T06:05:26.777Z,4.70
2023-03-26T06:08:09.406Z,4.80
2023-03-26T06:10:40.122Z,4.90
2023-03-26T06:13:08.102Z,5.00
2023-03-26T06:15:39.687Z,5.20
2023-03-26T06:18:24.996Z,5.20
2023-03-26T06:21:11.662Z,5.10
2023-03-26T06:23:52.097Z,5.10
2023-03-26T06:26:38.094Z,5.10
2023-03-26T06:29:21.027Z,5.20
2023-03-26T06:32:18.328Z,5.20
2023-03-26T06:34:57.932Z,5.30
2023-03-26T06:37:25.552Z,5.40
2023-03-26T06:39:58.442Z,5.40
2023-03-26T06:43:08.956Z,5.50
2023-03-26T06:45:52.669Z,5.70
2023-03-26T06:48:39.460Z,5.80
2023-03-26T06:51:26.284Z,5.90
2023-03-26T06:54:14.843Z,6.00
2023-03-26T06:56:56.554Z,6.10
2023-03-26T06:59:43.222Z,6.10
2023-03-26T07:02:30.334Z,6.20
2023-03-26T07:05:21.642Z,6.30
2023-03-26T07:08:12.044Z,6.50
2023-03-26T07:10:58.750Z,6.60
2023-03-26T07:13:45.958Z,6.70
2023-03-26T07:16:33.626Z,6.80
2023-03-26T07:19:21.973Z,6.80
2023-03-26T07:21:50.536Z,6.90
2023-03-26T07:24:37.027Z,6.90
2023-03-26T07:27:38.382Z,7.00
2023-03-26T07:30:12.662Z,7.00
2023-03-26T07:33:14.442Z,7.00
2023-03-26T07:36:08.079Z,7.00
2023-03-26T07:39:35.882Z,7.00
2023-03-26T07:42:37.360Z,7.00
2023-03-26T07:45:43.854Z,7.10
2023-03-26T07:48:29.584Z,7.10
2023-03-26T07:51:17.075Z,7.10
2023-03-26T07:53:57.193Z,7.20
2023-03-26T07:57:06.038Z,7.20
2023-03-26T08:00:12.413Z,7.20
2023-03-26T08:03:15.887Z,7.30
2023-03-26T08:06:14.973Z,7.30
2023-03-26T08:09:00.648Z,7.40
2023-03-26T08:11:45.638Z,7.40
2023-03-26T08:14:44.195Z,7.50
2023-03-26T08:17:35.374Z,7.70
2023-03-26T08:20:26.356Z,7.80
2023-03-26T08:23:04.951Z,7.90
2023-03-26T08:25:45.112Z,7.90
2023-03-26T08:29:07.049Z,7.90
2023-03-26T08:31:39.346Z,8.00
2023-03-26T08:34:10.646Z,8.00
2023-03-26T08:36:38.813Z,8.00
2023-03-26T08:39:07.716Z,8.20
2023-03-26T08:42:12.950Z,8.20
2023-03-26T08:44:53.718Z,8.20
2023-03-26T08:47:39.317Z,8.00
2023-03-26T08:50:13.952Z,7.90
2023-03-26T08:53:03.811Z,8.00
2023-03-26T08:56:00.247Z,8.00
2023-03-26T08:58:31.783Z,8.10
2023-03-26T09:01:33.906Z,8.10
2023-03-26T09:04:16.505Z,8.30
2023-03-26T09:07:22.729Z,8.40
2023-03-26T09:10:16.315Z,8.30
2023-03-26T09:12:47.149Z,8.30
2023-03-26T09:15:38.172Z,8.30
2023-03-26T09:18:59.725Z,8.40
2023-03-26T09:21:59.598Z,8.30
2023-03-26T09:25:05.357Z,8.40
2023-03-26T09:27:52.883Z,8.40
2023-03-26T09:30:58.335Z,8.30
2023-03-26T09:33:35.081Z,8.20
2023-03-26T09:36:33.592Z,8.20
2023-03-26T09:39:30.641Z,8.20
2023-03-26T09:42:25.656Z,8.00
2023-03-26T09:45:22.119Z,8.00
2023-03-26T09:48:11.215Z,7.90
2023-03-26T09:50:51.189Z,7.90
2023-03-26T09:54:02.784Z,8.00
2023-03-26T09:56:59.048Z,8.00
2023-03-26T09:59:52.401Z,8.10
2023-03-26T10:02:46.514Z,8.00
2023-03-26T10:05:21.771Z,7.90
2023-03-26T10:08:32.956Z,7.90
2023-03-26T10:11:20.204Z,7.90
2023-03-26T10:14:19.995Z,7.80
2023-03-26T10:17:09.765Z,7.90
2023-03-26T10:19:56.480Z,7.90
2023-03-26T10:22:51.063Z,7.80
2023-03-26T10:25:42.225Z,8.00
2023-03-26T10:28:56.840Z,8.30
2023-03-26T10:31:46.539Z,8.50
2023-03-26T10:34:34.044Z,8.60
2023-03-26T10:37:27.503Z,8.50
2023-03-26T10:40:24.158Z,8.40
2023-03-26T10:43:32.197Z,8.30
2023-03-26T10:46:19.348Z,8.20
2023-03-26T10:49:41.408Z,8.10
2023-03-26T10:52:35.905Z,8.00
2023-03-26T10:55:26.809Z,7.90
2023-03-26T10:58:04.881Z,7.90
2023-03-26T11:00:41.908Z,7.80
2023-03-26T11:03:52.965Z,7.70
2023-03-26T11:06:31.358Z,7.60
2023-03-26T11:08:59.346Z,7.50
2023-03-26T11:11:56.500Z,7.40
2023-03-26T11:14:35.539Z,7.40
2023-03-26T11:17:41.570Z,7.30
2023-03-26T11:20:15.422Z,7.20
2023-03-26T11:22:50.850Z,7.20
2023-03-26T11:25:42.560Z,7.20
2023-03-26T11:28:28.517Z,7.40
2023-03-26T11:31:21.134Z,7.30
2023-03-26T11:34:03.201Z,7.20
2023-03-26T11:36:36.389Z,7.40
2023-03-26T11:39:10.744Z,7.50
2023-03-26T11:41:38.792Z,7.70
2023-03-26T11:44:26.307Z,7.90
2023-03-26T11:47:07.579Z,7.90
2023-03-26T11:49:35.798Z,8.00
2023-03-26T11:52:04.061Z,8.00
2023-03-26T11:54:33.137Z,8.00
2023-03-26T11:57:11.197Z,8.20
2023-03-26T12:00:20.060Z,8.10
2023-03-26T12:02:48.813Z,7.90
2023-03-26T12:05:32.246Z,7.70
2023-03-26T12:08:02.261Z,7.50
2023-03-26T12:10:39.397Z,7.40
2023-03-26T12:13:36.652Z,7.30
2023-03-26T12:16:13.843Z,7.30
2023-03-26T12:18:45.359Z,7.20
2023-03-26T12:21:19.174Z,7.30
2023-03-26T12:24:01.748Z,7.30
2023-03-26T12:26:42.912Z,7.30
2023-03-26T12:29:14.559Z,7.20
2023-03-26T12:31:54.674Z,7.30
2023-03-26T12:34:30.933Z,7.40
2023-03-26T12:37:01.988Z,7.50
2023-03-26T12:40:09.731Z,7.70
2023-03-26T12:44:44.261Z,7.80
2023-03-26T12:45:28.035Z,8.00
2023-03-26T12:48:03.740Z,8.20
2023-03-26T12:51:14.560Z,8.30
2023-03-26T12:53:59.847Z,8.40
2023-03-26T12:57:11.938Z,8.60
2023-03-26T12:59:57.412Z,8.60
2023-03-26T13:02:59.405Z,8.60
2023-03-26T13:05:52.026Z,8.50
2023-03-26T13:08:47.632Z,8.50
2023-03-26T13:12:10.056Z,8.50
2023-03-26T13:14:52.357Z,8.40
2023-03-26T13:17:34.566Z,8.40
2023-03-26T13:20:07.679Z,8.40
2023-03-26T13:22:41.987Z,8.40
2023-03-26T13:25:34.595Z,8.50
2023-03-26T13:28:19.290Z,8.40
2023-03-26T13:31:18.998Z,8.40
2023-03-26T13:33:49.572Z,8.50
2023-03-26T13:36:51.028Z,8.50
2023-03-26T13:39:33.604Z,8.60
2023-03-26T13:42:19.216Z,8.60
2023-03-26T13:45:12.025Z,8.60
2023-03-26T13:47:48.416Z,8.60
2023-03-26T13:50:37.580Z,8.60
2023-03-26T13:53:21.253Z,8.50
2023-03-26T13:56:00.947Z,8.60
2023-03-26T13:58:54.342Z,8.50
2023-03-26T14:01:34.904Z,8.50
2023-03-26T14:04:23.528Z,8.50
2023-03-26T14:07:13.146Z,8.50
2023-03-26T14:09:54.409Z,8.50
2023-03-26T14:12:27.470Z,8.50
2023-03-26T14:15:28.856Z,8.50
2023-03-26T14:18:26.164Z,8.50
2023-03-26T14:21:14.715Z,8.50
2023-03-26T14:24:06.967Z,8.50
2023-03-26T14:26:49.804Z,8.60
2023-03-26T14:29:28.110Z,8.60
2023-03-26T14:32:24.266Z,8.60
2023-03-26T14:35:10.892Z,8.60
2023-03-26T14:38:03.174Z,8.70
2023-03-26T14:40:30.898Z,8.60
2023-03-26T14:43:17.048Z,8.60
2023-03-26T14:46:20.204Z,8.60
2023-03-26T14:49:25.488Z,8.50
2023-03-26T14:52:11.581Z,8.40
2023-03-26T14:54:45.818Z,8.20
2023-03-26T14:57:51.161Z,7.70
2023-03-26T15:00:47.384Z,7.30
2023-03-26T15:03:49.222Z,7.10
2023-03-26T15:06:36.714Z,7.10
2023-03-26T15:09:29.121Z,7.10
2023-03-26T15:12:28.683Z,7.20
2023-03-26T15:15:30.221Z,7.00
2023-03-26T15:18:26.153Z,7.00
2023-03-26T15:21:31.076Z,7.00
2023-03-26T15:24:13.580Z,7.10
2023-03-26T15:27:22.138Z,7.10
2023-03-26T15:30:10.463Z,7.10
2023-03-26T15:33:08.743Z,7.00
2023-03-26T15:36:21.551Z,7.00
2023-03-26T15:39:04.996Z,7.10
2023-03-26T15:41:40.639Z,7.20
2023-03-26T15:44:40.992Z,7.30
2023-03-26T15:47:56.501Z,7.40
2023-03-26T15:51:01.441Z,7.50
2023-03-26T15:53:49.941Z,7.50
2023-03-26T15:56:40.706Z,7.60
2023-03-26T15:59:34.808Z,7.50
2023-03-26T16:02:28.224Z,7.50
2023-03-26T16:05:19.497Z,7.50
2023-03-26T16:08:11.417Z,7.50
2023-03-26T16:10:57.606Z,7.50
2023-03-26T16:13:40.639Z,7.40
2023-03-26T16:16:14.506Z,7.40
2023-03-26T16:18:46.818Z,7.50
2023-03-26T16:21:34.860Z,7.50
2023-03-26T16:24:03.164Z,7.60
2023-03-26T16:27:04.698Z,7.60
2023-03-26T16:29:34.503Z,7.70
2023-03-26T16:32:15.097Z,7.90
2023-03-26T16:35:05.652Z,7.90
2023-03-26T16:37:36.849Z,7.80
2023-03-26T16:40:17.276Z,7.70
2023-03-26T16:43:18.299Z,7.60
2023-03-26T16:46:28.356Z,7.60
2023-03-26T16:49:17.257Z,7.40
2023-03-26T16:52:03.374Z,7.40
2023-03-26T16:54:43.869Z,7.40
2023-03-26T16:57:43.108Z,7.20
2023-03-26T17:00:31.415Z,7.20
2023-03-26T17:03:35.434Z,7.20
2023-03-26T17:06:23.937Z,7.30
2023-03-26T17:09:04.949Z,7.30
2023-03-26T17:11:58.390Z,7.30
2023-03-26T17:14:42.575Z,7.20
2023-03-26T17:17:42.451Z,7.20
2023-03-26T17:20:36.161Z,7.20
2023-03-26T17:23:27.147Z,7.20
2023-03-26T17:26:32.101Z,7.00
2023-03-26T17:29:09.597Z,7.00
2023-03-26T17:31:53.422Z,7.10
2023-03-26T17:34:47.800Z,7.10
2023-03-26T17:37:24.297Z,7.00
2023-03-26T17:39:57.669Z,7.10
2023-03-26T17:42:33.647Z,7.00
2023-03-26T17:45:13.405Z,7.10
2023-03-26T17:47:48.420Z,7.10
2023-03-26T17:50:22.851Z,7.10
2023-03-26T17:53:07.855Z,7.00
2023-03-26T17:55:39.595Z,7.00
2023-03-26T17:58:33.444Z,7.10
2023-03-26T18:01:24.459Z,7.00
2023-03-26T18:04:03.659Z,7.00
2023-03-26T18:07:05.341Z,7.00
2023-03-26T18:09:48.359Z,7.10
2023-03-26T18:12:32.293Z,7.10
2023-03-26T18:15:28.718Z,7.10
2023-03-26T18:18:12.155Z,7.20
2023-03-26T18:20:42.915Z,7.10
2023-03-26T18:23:21.202Z,7.00
2023-03-26T18:26:11.400Z,6.90
2023-03-26T18:28:54.714Z,6.80
2023-03-26T18:31:28.568Z,6.80
2023-03-26T18:34:03.163Z,6.70
2023-03-26T18:36:31.525Z,6.60
2023-03-26T18:38:59.488Z,6.60
2023-03-26T18:41:32.478Z,6.50
2023-03-26T18:44:05.877Z,6.50
2023-03-26T18:46:35.072Z,6.30
2023-03-26T18:49:03.169Z,6.30
2023-03-26T18:51:36.469Z,6.20
2023-03-26T18:54:13.220Z,6.10
2023-03-26T18:56:43.509Z,6.00
2023-03-26T18:59:35.195Z,5.90
2023-03-26T19:02:09.224Z,5.70
2023-03-26T19:04:38.549Z,5.60
2023-03-26T19:07:13.689Z,5.50
2023-03-26T19:09:43.516Z,5.40
2023-03-26T19:12:37.725Z,5.40
2023-03-26T19:15:15.812Z,5.30
2023-03-26T19:17:47.065Z,5.30
2023-03-26T19:20:29.866Z,5.20
2023-03-26T19:22:58.029Z,5.20
2023-03-26T19:25:48.516Z,5.20
2023-03-26T19:28:20.257Z,5.20
2023-03-26T19:30:52.751Z,5.20
2023-03-26T19:33:29.752Z,5.20
2023-03-26T19:36:15.838Z,5.20
2023-03-26T19:38:48.756Z,5.10
2023-03-26T19:41:23.077Z,5.10
2023-03-26T19:43:53.448Z,5.10
2023-03-26T19:46:33.440Z,5.00
2023-03-26T19:49:01.257Z,5.00
2023-03-26T19:51:35.584Z,5.00
2023-03-26T19:54:13.960Z,5.00
2023-03-26T19:56:41.855Z,5.00
2023-03-26T19:59:09.616Z,4.90
2023-03-26T20:01:38.912Z,4.90
2023-03-26T20:04:10.710Z,4.90
2023-03-26T20:06:43.755Z,4.80
2023-03-26T20:09:12.978Z,4.90
2023-03-26T20:11:41.316Z,4.90
2023-03-26T20:14:19.925Z,4.90
2023-03-26T20:16:48.340Z,4.80
2023-03-26T20:19:19.384Z,4.80
2023-03-26T20:21:47.018Z,4.90
2023-03-26T20:24:16.876Z,4.80
2023-03-26T20:26:48.261Z,4.80
2023-03-26T20:29:17.406Z,4.80
2023-03-26T20:31:46.069Z,4.80
2023-03-26T20:34:22.766Z,4.90
2023-03-26T20:36:56.193Z,4.90
2023-03-26T20:39:25.069Z,4.90
2023-03-26T20:41:58.389Z,4.90
2023-03-26T20:44:27.377Z,5.00
2023-03-26T20:46:56.699Z,5.00
2023-03-26T20:49:25.352Z,4.90
2023-03-26T20:51:52.974Z,4.90
2023-03-26T20:54:23.434Z,4.90
2023-03-26T20:56:52.592Z,5.00
2023-03-26T20:59:27.150Z,5.20
2023-03-26T21:01:59.634Z,4.90
2023-03-26T21:04:27.588Z,5.00
2023-03-26T21:07:06.689Z,5.00
2023-03-26T21:09:39.388Z,5.00
2023-03-26T21:12:09.726Z,5.00
2023-03-26T21:14:44.235Z,5.00
2023-03-26T21:17:18.457Z,5.00
2023-03-26T21:19:47.224Z,5.10
2023-03-26T21:22:30.202Z,5.10
2023-03-26T21:25:19.836Z,5.10
2023-03-26T21:28:06.645Z,5.00
2023-03-26T21:30:35.399Z,5.10
2023-03-26T21:33:05.478Z,5.20
2023-03-26T21:35:35.689Z,5.10
2023-03-26T21:38:05.486Z,5.10
2023-03-26T21:40:46.910Z,5.10
2023-03-26T21:43:19.552Z,5.20
2023-03-26T21:45:49.090Z,5.20
2023-03-26T21:48:17.449Z,5.20
2023-03-26T21:50:45.108Z,5.10
2023-03-26T21:53:17.242Z,5.10
2023-03-26T21:56:06.255Z,5.00
2023-03-26T21:59:14.339Z,5.00
2023-03-26T22:02:02.526Z,5.00
2023-03-26T22:04:49.917Z,5.10
2023-03-26T22:07:48.844Z,5.10
2023-03-26T22:10:16.662Z,5.10
2023-03-26T22:12:44.621Z,5.10
2023-03-26T22:15:15.860Z,5.00
2023-03-26T22:17:43.648Z,5.10
2023-03-26T22:20:15.579Z,5.10
2023-03-26T22:22:48.764Z,5.10
2023-03-26T22:25:18.069Z,5.10
2023-03-26T22:27:47.057Z,5.10
2023-03-26T22:30:15.824Z,5.00
2023-03-26T22:32:44.707Z,5.10
2023-03-26T22:35:12.972Z,5.10
2023-03-26T22:37:41.873Z,5.00
2023-03-26T22:40:10.274Z,5.00
2023-03-26T22:42:37.936Z,5.00
2023-03-26T22:45:06.308Z,5.00
2023-03-26T22:47:35.472Z,5.00
2023-03-26T22:50:04.908Z,4.90
2023-03-26T22:52:40.237Z,4.90
2023-03-26T22:55:08.524Z,5.00
2023-03-26T22:57:36.204Z,5.00
2023-03-26T23:00:16.638Z,4.90
2023-03-26T23:02:47.168Z,4.90
2023-03-26T23:05:19.340Z,4.90
2023-03-26T23:07:47.395Z,5.00
2023-03-26T23:10:15.261Z,5.00
2023-03-26T23:12:42.840Z,4.90
2023-03-26T23:15:11.005Z,5.00
2023-03-26T23:17:38.910Z,4.90
2023-03-26T23:20:15.250Z,4.90
2023-03-26T23:22:43.816Z,4.90
2023-03-26T23:25:12.316Z,4.90
2023-03-26T23:27:43.545Z,4.90
2023-03-26T23:30:12.020Z,4.90
2023-03-26T23:32:39.601Z,4.90
2023-03-26T23:35:07.834Z,4.90
2023-03-26T23:37:35.585Z,4.90
2023-03-26T23:40:09.860Z,4.80
2023-03-26T23:42:37.791Z,4.90
2023-03-26T23:45:06.292Z,4.90
2023-03-26T23:47:37.404Z,4.90
2023-03-26T23:50:06.108Z,4.80
2023-03-26T23:52:33.561Z,4.80
2023-03-26T23:55:01.558Z,4.80
2023-03-26T23:57:30.843Z,4.70
2023-03-26T23:59:58.702Z,4.70
